Terminal Aerodrome Forecast
Issued by NWS

Home | Current Version | Previous Version | Text Only | Print | Product List | Glossary On
Versions: 1 2 3 4 5 6 7 8 9 10 11 12 13 14 15 16 17 18 19
000
FTUS43 KGRR 020500 RRA
TAFMKG
TAF
KMKG 020546Z 0206/0306 14008KT P6SM BKN100
     FM021000 14009KT 4SM -SHRA BR SCT015 OVC025
     FM021600 16010KT P6SM VCSH BKN035
     FM030300 14010KT 3SM -SHRA BR VCTS BKN025CB=

USA.gov is the U.S. government's official web portal to all federal, state and local government web resources and services.